createdAt,value
2018-06-09T00:00:05.156Z,16.01
2018-06-09T00:01:05.155Z,16.01
2018-06-09T00:02:05.155Z,15.97
2018-06-09T00:03:05.154Z,15.92
2018-06-09T00:04:05.144Z,15.89
2018-06-09T00:05:05.142Z,15.93
2018-06-09T00:06:05.138Z,15.85
2018-06-09T00:07:05.137Z,15.81
2018-06-09T00:08:05.134Z,15.79
2018-06-09T00:09:05.128Z,15.78
2018-06-09T00:10:05.124Z,15.74
2018-06-09T00:11:05.119Z,15.75
2018-06-09T00:12:05.118Z,15.75
2018-06-09T00:13:05.108Z,15.63
2018-06-09T00:14:05.173Z,15.74
2018-06-09T00:15:05.108Z,15.67
2018-06-09T00:16:05.103Z,15.67
2018-06-09T00:17:05.099Z,15.70
2018-06-09T00:18:05.101Z,15.75
2018-06-09T00:19:05.094Z,15.81
2018-06-09T00:20:05.091Z,15.81
2018-06-09T00:21:05.085Z,15.82
2018-06-09T00:22:05.084Z,15.75
2018-06-09T00:23:05.079Z,15.82
2018-06-09T00:24:05.127Z,15.86
2018-06-09T00:25:05.134Z,16.00
2018-06-09T00:26:05.138Z,16.09
2018-06-09T00:27:05.145Z,16.11
2018-06-09T00:28:05.152Z,15.99
2018-06-09T00:29:05.068Z,16.07
2018-06-09T00:30:05.058Z,16.09
2018-06-09T00:31:05.053Z,16.14
2018-06-09T00:32:05.051Z,16.15
2018-06-09T00:33:05.043Z,16.12
2018-06-09T00:34:05.041Z,16.20
2018-06-09T00:35:05.044Z,16.22
2018-06-09T00:36:05.033Z,16.18
2018-06-09T00:37:05.032Z,16.22
2018-06-09T00:38:05.029Z,16.20
2018-06-09T00:39:05.022Z,16.35
2018-06-09T00:40:05.026Z,16.40
2018-06-09T00:41:05.016Z,16.25
2018-06-09T00:42:05.013Z,16.33
2018-06-09T00:43:05.010Z,16.31
2018-06-09T00:44:05.003Z,16.33
2018-06-09T00:45:05.005Z,16.38
2018-06-09T00:46:04.998Z,16.49
2018-06-09T00:47:04.997Z,16.34
2018-06-09T00:48:04.994Z,16.41
2018-06-09T00:49:04.992Z,16.48
2018-06-09T00:50:04.989Z,16.41
2018-06-09T00:51:04.984Z,16.33
2018-06-09T00:52:04.969Z,16.37
2018-06-09T00:53:04.975Z,16.41
2018-06-09T00:54:04.976Z,16.37
2018-06-09T00:55:04.965Z,16.33
2018-06-09T00:56:04.970Z,16.30
2018-06-09T00:57:04.965Z,16.30
2018-06-09T00:58:04.963Z,16.30
2018-06-09T00:59:04.958Z,16.25
2018-06-09T01:00:04.961Z,16.33
2018-06-09T01:01:04.946Z,16.34
2018-06-09T01:02:04.949Z,16.35
2018-06-09T01:03:04.944Z,16.42
2018-06-09T01:04:04.943Z,16.26
2018-06-09T01:05:04.941Z,16.34
2018-06-09T01:06:04.933Z,16.18
2018-06-09T01:07:04.930Z,16.31
2018-06-09T01:08:04.933Z,16.27
2018-06-09T01:09:04.925Z,16.18
2018-06-09T01:10:04.921Z,16.16
2018-06-09T01:11:04.919Z,16.25
2018-06-09T01:12:04.916Z,16.18
2018-06-09T01:13:04.913Z,16.15
2018-06-09T01:14:04.907Z,16.25
2018-06-09T01:15:04.900Z,16.27
2018-06-09T01:16:04.902Z,16.25
2018-06-09T01:17:04.900Z,16.25
2018-06-09T01:18:04.907Z,16.18
2018-06-09T01:19:04.895Z,16.16
2018-06-09T01:20:04.889Z,16.12
2018-06-09T01:21:04.888Z,16.12
2018-06-09T01:22:04.880Z,16.01
2018-06-09T01:23:04.872Z,16.12
2018-06-09T01:24:04.874Z,16.12
2018-06-09T01:25:04.872Z,16.12
2018-06-09T01:26:04.868Z,16.00
2018-06-09T01:27:04.865Z,16.01
2018-06-09T01:28:04.862Z,16.07
2018-06-09T01:29:04.861Z,16.12
2018-06-09T01:30:04.861Z,16.09
2018-06-09T01:31:04.860Z,16.04
2018-06-09T02:04:15.871Z,16.01
2018-06-09T02:05:15.842Z,16.03
2018-06-09T02:07:08.727Z,16.01
2018-06-09T02:08:08.701Z,15.99
2018-06-09T02:10:01.598Z,15.99
2018-06-09T02:11:01.582Z,15.93
2018-06-09T02:12:54.489Z,15.93
2018-06-09T02:13:54.459Z,15.81
2018-06-09T02:15:47.401Z,15.74
2018-06-09T02:16:47.385Z,15.72
2018-06-09T02:18:40.307Z,15.66
2018-06-09T02:19:40.280Z,15.67
2018-06-09T02:21:33.231Z,15.57
2018-06-09T02:22:33.214Z,15.49
2018-06-09T02:24:26.256Z,15.48
2018-06-09T02:25:26.230Z,15.54
2018-06-09T02:27:19.190Z,15.45
2018-06-09T02:28:19.174Z,15.45
2018-06-09T02:30:12.192Z,15.46
2018-06-09T02:31:12.185Z,15.59
2018-06-09T02:33:05.227Z,15.41
2018-06-09T02:34:05.202Z,15.42
2018-06-09T02:35:58.099Z,15.54
2018-06-09T02:36:58.094Z,15.42
2018-06-09T02:38:51.015Z,15.43
2018-06-09T02:39:50.993Z,15.41
2018-06-09T02:41:44.010Z,15.41
2018-06-09T02:42:43.996Z,15.36
2018-06-09T02:44:36.925Z,15.41
2018-06-09T02:45:36.891Z,15.36
2018-06-09T02:47:29.938Z,15.28
2018-06-09T02:48:29.913Z,15.36
2018-06-09T02:50:22.810Z,15.45
2018-06-09T02:51:22.798Z,15.54
2018-06-09T02:53:15.805Z,15.67
2018-06-09T02:54:15.772Z,15.64
2018-06-09T02:56:08.709Z,15.63
2018-06-09T02:57:08.701Z,15.54
2018-06-09T02:59:01.651Z,15.49
2018-06-09T03:00:01.626Z,15.49
2018-06-09T03:01:54.516Z,15.39
2018-06-09T03:02:54.504Z,15.43
2018-06-09T03:04:47.458Z,15.42
2018-06-09T03:05:47.435Z,15.41
2018-06-09T03:07:40.342Z,15.46
2018-06-09T03:08:40.317Z,15.45
2018-06-09T03:10:33.297Z,15.59
2018-06-09T03:11:33.290Z,15.66
2018-06-09T03:13:26.251Z,15.67
2018-06-09T03:14:26.227Z,15.63
2018-06-09T03:15:26.226Z,15.74
2018-06-09T03:16:26.225Z,15.82
2018-06-09T03:17:26.220Z,15.82
2018-06-09T03:18:26.211Z,15.86
2018-06-09T03:19:26.217Z,15.86
2018-06-09T03:20:26.211Z,15.88
2018-06-09T03:21:26.250Z,15.89
2018-06-09T03:22:26.207Z,15.89
2018-06-09T03:23:26.196Z,15.97
2018-06-09T03:24:26.194Z,15.99
2018-06-09T03:25:26.187Z,15.99
2018-06-09T03:26:26.187Z,15.92
2018-06-09T03:27:26.182Z,15.96
2018-06-09T03:28:26.180Z,16.04
2018-06-09T03:29:26.182Z,16.07
2018-06-09T03:30:26.175Z,16.11
2018-06-09T03:31:26.172Z,16.01
2018-06-09T03:32:26.167Z,15.96
2018-06-09T03:33:26.164Z,16.06
2018-06-09T03:34:26.161Z,16.03
2018-06-09T03:35:26.161Z,16.11
2018-06-09T03:36:26.160Z,16.04
2018-06-09T03:37:26.148Z,16.07
2018-06-09T03:38:26.154Z,16.15
2018-06-09T03:39:26.148Z,16.06
2018-06-09T03:40:26.144Z,16.16
2018-06-09T03:41:26.138Z,16.07
2018-06-09T03:42:26.138Z,16.15
2018-06-09T03:43:26.187Z,16.14
2018-06-09T03:44:26.142Z,16.16
2018-06-09T03:45:26.129Z,16.12
2018-06-09T03:46:26.135Z,16.12
2018-06-09T03:47:26.122Z,16.14
2018-06-09T03:48:26.119Z,16.11
2018-06-09T03:49:26.111Z,16.09
2018-06-09T03:50:26.115Z,16.01
2018-06-09T03:51:26.106Z,16.09
2018-06-09T03:52:26.108Z,16.14
2018-06-09T03:53:26.100Z,16.11
2018-06-09T03:54:26.086Z,16.12
2018-06-09T03:55:26.092Z,16.16
2018-06-09T03:56:26.093Z,16.22
2018-06-09T03:57:26.092Z,16.15
2018-06-09T03:58:26.086Z,16.07
2018-06-09T03:59:26.075Z,16.11
2018-06-09T04:00:26.079Z,16.16
2018-06-09T04:01:26.074Z,16.26
2018-06-09T04:02:26.074Z,16.20
2018-06-09T04:03:26.074Z,16.18
2018-06-09T04:04:26.065Z,16.20
2018-06-09T04:05:26.067Z,16.25
2018-06-09T04:06:26.064Z,16.25
2018-06-09T04:07:26.065Z,16.15
2018-06-09T04:08:26.051Z,16.11
2018-06-09T04:09:26.055Z,16.20
2018-06-09T04:10:26.044Z,16.22
2018-06-09T04:11:26.045Z,16.25
2018-06-09T04:12:26.041Z,16.27
2018-06-09T04:13:26.035Z,16.35
2018-06-09T04:14:26.035Z,16.35
2018-06-09T04:15:26.028Z,16.33
2018-06-09T04:16:26.027Z,16.40
2018-06-09T04:17:26.023Z,16.33
2018-06-09T04:18:26.020Z,16.37
2018-06-09T04:19:26.016Z,16.35
2018-06-09T04:20:26.017Z,16.48
2018-06-09T04:21:26.012Z,16.34
2018-06-09T04:22:26.009Z,16.34
2018-06-09T04:23:25.996Z,16.38
2018-06-09T04:24:26.008Z,16.41
2018-06-09T04:25:26.000Z,16.44
2018-06-09T04:26:25.999Z,16.58
2018-06-09T04:27:26.000Z,16.60
2018-06-09T04:28:26.059Z,16.56
2018-06-09T04:29:25.986Z,16.67
2018-06-09T04:30:25.985Z,16.71
2018-06-09T04:31:25.987Z,16.68
2018-06-09T04:32:25.979Z,16.74
2018-06-09T04:33:25.976Z,16.83
2018-06-09T04:34:25.975Z,16.93
2018-06-09T04:35:25.975Z,16.95
2018-06-09T04:36:25.969Z,17.03
2018-06-09T04:37:25.962Z,17.13
2018-06-09T04:38:25.972Z,17.20
2018-06-09T04:39:25.961Z,17.10
2018-06-09T04:40:25.962Z,17.20
2018-06-09T04:41:25.955Z,17.26
2018-06-09T04:42:25.952Z,17.25
2018-06-09T04:43:25.950Z,17.30
2018-06-09T04:44:25.951Z,17.29
2018-06-09T04:45:25.973Z,17.14
2018-06-09T04:46:25.948Z,17.25
2018-06-09T04:47:25.946Z,17.33
2018-06-09T04:48:25.938Z,17.44
2018-06-09T04:49:25.934Z,17.41
2018-06-09T04:50:25.924Z,17.36
2018-06-09T04:51:25.933Z,17.40
2018-06-09T04:52:25.939Z,17.26
2018-06-09T04:53:25.927Z,17.29
2018-06-09T04:54:25.932Z,17.22
2018-06-09T04:55:25.924Z,17.14
2018-06-09T04:56:25.917Z,17.15
2018-06-09T04:57:25.924Z,17.15
2018-06-09T04:58:25.933Z,17.11
2018-06-09T04:59:25.920Z,17.04
2018-06-09T05:00:25.913Z,17.06
2018-06-09T05:01:25.913Z,17.10
2018-06-09T05:02:25.909Z,17.10
2018-06-09T05:03:25.906Z,17.07
2018-06-09T05:04:25.906Z,17.10
2018-06-09T05:05:25.901Z,17.13
2018-06-09T05:06:25.900Z,17.15
2018-06-09T05:07:25.897Z,17.20
2018-06-09T05:08:25.894Z,17.23
2018-06-09T05:09:25.894Z,17.28
2018-06-09T05:10:25.900Z,17.23
2018-06-09T05:11:25.885Z,17.28
2018-06-09T05:12:25.887Z,17.43
2018-06-09T05:13:25.883Z,17.33
2018-06-09T05:14:25.887Z,17.33
2018-06-09T05:15:25.880Z,17.41
2018-06-09T05:16:25.883Z,17.38
2018-06-09T05:17:25.875Z,17.44
2018-06-09T05:18:25.884Z,17.40
2018-06-09T05:19:25.872Z,17.35
2018-06-09T05:20:25.874Z,17.38
2018-06-09T05:21:25.868Z,17.36
2018-06-09T05:22:25.863Z,17.38
2018-06-09T05:23:25.861Z,17.28
2018-06-09T05:24:25.861Z,17.40
2018-06-09T05:25:25.858Z,17.43
2018-06-09T05:26:25.850Z,17.43
2018-06-09T05:27:25.854Z,17.47
2018-06-09T05:28:25.857Z,17.51
2018-06-09T05:29:25.851Z,17.66
2018-06-09T05:30:25.851Z,17.62
2018-06-09T05:31:25.844Z,17.59
2018-06-09T05:32:25.849Z,17.59
2018-06-09T05:33:25.840Z,17.63
2018-06-09T05:34:25.836Z,17.71
2018-06-09T05:35:25.833Z,17.73
2018-06-09T05:36:25.835Z,17.69
2018-06-09T05:37:25.833Z,17.84
2018-06-09T05:38:25.831Z,17.89
2018-06-09T05:39:25.832Z,18.00
2018-06-09T05:40:25.824Z,18.12
2018-06-09T05:41:25.821Z,18.34
2018-06-09T05:42:25.823Z,18.33
2018-06-09T05:43:25.823Z,18.46
2018-06-09T05:44:25.820Z,18.62
2018-06-09T05:45:25.823Z,18.79
2018-06-09T05:46:25.818Z,18.95
2018-06-09T05:47:25.810Z,18.98
2018-06-09T05:48:25.813Z,19.14
2018-06-09T05:49:25.821Z,19.17
2018-06-09T05:50:25.813Z,18.98
2018-06-09T05:51:25.804Z,18.99
2018-06-09T05:52:25.809Z,19.13
2018-06-09T05:53:25.811Z,19.17
2018-06-09T05:54:25.810Z,19.17
2018-06-09T05:55:25.802Z,18.95
2018-06-09T05:56:25.820Z,19.01
2018-06-09T05:57:25.819Z,19.14
2018-06-09T05:58:25.795Z,19.20
2018-06-09T05:59:25.808Z,19.15
2018-06-09T06:00:25.806Z,19.14
2018-06-09T06:01:25.806Z,19.25
2018-06-09T06:02:25.807Z,19.35
2018-06-09T06:03:25.807Z,19.42
2018-06-09T06:04:25.809Z,19.42
2018-06-09T06:05:25.809Z,19.55
2018-06-09T06:06:25.830Z,19.63
2018-06-09T06:07:25.810Z,19.73
2018-06-09T06:08:25.860Z,19.75
2018-06-09T06:09:25.809Z,19.57
2018-06-09T06:10:25.808Z,19.53
2018-06-09T06:11:25.810Z,19.63
2018-06-09T06:12:26.683Z,19.69
2018-06-09T06:13:25.817Z,19.69
2018-06-09T06:14:25.815Z,19.72
2018-06-09T06:15:25.818Z,19.94
2018-06-09T06:16:25.814Z,19.83
2018-06-09T06:17:25.815Z,19.97
2018-06-09T06:18:25.820Z,20.03
2018-06-09T06:19:25.820Z,20.13
2018-06-09T06:20:25.823Z,20.23
2018-06-09T06:21:25.839Z,20.06
2018-06-09T06:22:25.824Z,20.25
2018-06-09T06:23:25.823Z,20.43
2018-06-09T06:24:25.827Z,20.47
2018-06-09T06:25:25.827Z,20.46
2018-06-09T06:26:25.830Z,20.46
2018-06-09T06:27:25.831Z,20.46
2018-06-09T06:28:25.837Z,20.41
2018-06-09T06:29:25.838Z,20.20
2018-06-09T06:30:25.840Z,19.95
2018-06-09T06:31:25.839Z,20.02
2018-06-09T06:32:25.841Z,20.23
2018-06-09T06:33:25.846Z,20.34
2018-06-09T06:34:25.847Z,20.18
2018-06-09T06:35:25.850Z,20.35
2018-06-09T06:36:25.865Z,20.41
2018-06-09T06:37:25.848Z,20.54
2018-06-09T06:38:25.857Z,20.54
2018-06-09T06:39:25.861Z,20.65
2018-06-09T06:40:25.869Z,21.21
2018-06-09T06:41:25.868Z,21.32
2018-06-09T06:42:25.867Z,21.63
2018-06-09T06:43:25.871Z,21.76
2018-06-09T06:44:25.873Z,21.85
2018-06-09T06:45:25.886Z,21.91
2018-06-09T06:46:25.880Z,22.23
2018-06-09T06:47:25.878Z,22.31
2018-06-09T06:48:25.879Z,22.72
2018-06-09T06:49:25.887Z,22.83
2018-06-09T06:50:25.886Z,22.75
2018-06-09T06:51:25.895Z,22.84
2018-06-09T06:52:25.894Z,22.53
2018-06-09T06:53:25.903Z,22.56
2018-06-09T06:54:25.901Z,22.34
2018-06-09T06:55:25.908Z,22.57
2018-06-09T06:56:25.912Z,23.01
2018-06-09T06:57:25.915Z,22.87
2018-06-09T06:58:25.913Z,23.09
2018-06-09T06:59:25.922Z,23.40
2018-06-09T07:00:25.926Z,23.17
2018-06-09T07:01:25.928Z,22.71
2018-06-09T07:02:25.934Z,23.15
2018-06-09T07:03:25.950Z,23.83
2018-06-09T07:04:25.945Z,23.34
2018-06-09T07:05:25.946Z,23.65
2018-06-09T07:06:25.953Z,23.90
2018-06-09T07:07:25.957Z,23.57
2018-06-09T07:08:25.963Z,23.26
2018-06-09T07:09:25.971Z,23.32
2018-06-09T07:10:25.969Z,23.09
2018-06-09T07:11:25.976Z,22.94
2018-06-09T07:12:26.010Z,22.87
2018-06-09T07:13:26.050Z,22.77
2018-06-09T07:14:26.002Z,22.78
2018-06-09T07:15:26.099Z,23.95
2018-06-09T07:16:26.006Z,23.79
2018-06-09T07:17:25.995Z,23.26
2018-06-09T07:18:26.014Z,23.52
2018-06-09T07:19:26.018Z,23.85
2018-06-09T07:20:26.027Z,24.27
2018-06-09T07:21:26.027Z,24.87
2018-06-09T07:22:26.039Z,25.37
2018-06-09T07:23:26.039Z,25.79
2018-06-09T07:24:26.049Z,25.86
2018-06-09T07:25:26.063Z,25.31
2018-06-09T07:26:26.073Z,25.00
2018-06-09T07:27:26.069Z,24.83
2018-06-09T07:28:26.075Z,25.74
2018-06-09T07:29:26.087Z,26.50
2018-06-09T07:30:26.089Z,26.68
2018-06-09T07:31:26.112Z,25.98
2018-06-09T07:32:26.110Z,26.49
2018-06-09T07:33:26.116Z,26.42
2018-06-09T07:34:26.126Z,25.93
2018-06-09T07:35:26.134Z,25.61
2018-06-09T07:36:26.144Z,25.61
2018-06-09T07:37:26.147Z,25.97
2018-06-09T07:38:26.162Z,25.83
2018-06-09T07:39:26.168Z,25.82
2018-06-09T07:40:26.176Z,25.83
2018-06-09T07:41:26.183Z,25.82
2018-06-09T07:42:26.190Z,25.97
2018-06-09T07:43:26.207Z,25.84
2018-06-09T07:44:26.209Z,25.72
2018-06-09T07:45:26.213Z,25.57
2018-06-09T07:46:26.221Z,25.35
2018-06-09T07:47:26.227Z,24.92
2018-06-09T07:48:26.261Z,24.79
2018-06-09T07:49:26.246Z,24.71
2018-06-09T07:50:26.243Z,24.80
2018-06-09T07:51:26.257Z,25.97
2018-06-09T07:52:26.260Z,27.11
2018-06-09T07:53:26.270Z,27.86
2018-06-09T07:54:26.277Z,28.21
2018-06-09T07:55:26.275Z,27.98
2018-06-09T07:56:26.287Z,26.64
2018-06-09T07:57:26.294Z,26.42
2018-06-09T07:58:26.303Z,26.39
2018-06-09T07:59:26.308Z,26.47
2018-06-09T08:00:26.329Z,26.31
2018-06-09T08:01:26.329Z,26.54
2018-06-09T08:02:26.336Z,27.51
2018-06-09T08:03:26.347Z,27.17
2018-06-09T08:04:26.355Z,27.89
2018-06-09T08:05:26.367Z,28.46
2018-06-09T08:06:26.376Z,28.17
2018-06-09T08:07:26.384Z,28.26
2018-06-09T08:08:26.388Z,27.53
2018-06-09T08:09:26.406Z,27.47
2018-06-09T08:10:26.410Z,28.43
2018-06-09T08:11:26.420Z,29.08
2018-06-09T08:12:26.435Z,29.20
2018-06-09T08:13:26.443Z,29.15
2018-06-09T08:14:26.455Z,29.45
2018-06-09T08:15:26.487Z,28.21
2018-06-09T08:16:26.477Z,27.51
2018-06-09T08:17:26.484Z,27.86
2018-06-09T08:18:26.491Z,28.23
2018-06-09T08:19:26.509Z,28.90
2018-06-09T08:20:26.515Z,28.29
2018-06-09T08:21:26.527Z,28.47
2018-06-09T08:22:26.540Z,28.90
2018-06-09T08:23:26.557Z,29.93
2018-06-09T08:24:26.608Z,29.79
2018-06-09T08:25:26.602Z,28.69
2018-06-09T08:26:26.586Z,28.48
2018-06-09T08:27:26.606Z,29.07
2018-06-09T08:28:26.622Z,29.94
2018-06-09T08:29:26.628Z,29.10
2018-06-09T08:30:26.671Z,28.78
2018-06-09T08:31:26.659Z,28.54
2018-06-09T08:32:26.670Z,28.90
2018-06-09T08:33:26.681Z,29.40
2018-06-09T08:34:26.719Z,28.04
2018-06-09T08:35:26.706Z,27.82
2018-06-09T08:36:26.759Z,27.50
2018-06-09T08:37:26.722Z,27.31
2018-06-09T08:38:26.733Z,26.64
2018-06-09T08:39:26.770Z,26.72
2018-06-09T08:40:26.769Z,26.89
2018-06-09T08:41:26.775Z,27.58
2018-06-09T08:42:26.791Z,27.96
2018-06-09T08:43:26.797Z,27.67
2018-06-09T08:44:26.814Z,27.26
2018-06-09T08:45:26.822Z,28.19
2018-06-09T08:46:26.880Z,29.26
2018-06-09T08:47:26.841Z,29.87
2018-06-09T08:48:26.852Z,30.30
2018-06-09T08:49:26.863Z,30.76
2018-06-09T08:50:26.882Z,30.69
2018-06-09T08:51:26.914Z,29.74
2018-06-09T08:52:26.906Z,30.12
2018-06-09T08:53:26.964Z,30.64
2018-06-09T08:54:26.943Z,30.89
2018-06-09T08:55:26.939Z,31.11
2018-06-09T08:56:26.953Z,30.94
2018-06-09T08:57:26.962Z,31.31
2018-06-09T08:58:26.991Z,31.76
2018-06-09T08:59:27.001Z,32.58
2018-06-09T09:00:27.011Z,32.88
2018-06-09T09:01:27.051Z,32.27
2018-06-09T09:02:27.044Z,32.25
2018-06-09T09:03:27.062Z,31.72
2018-06-09T09:04:27.098Z,30.87
2018-06-09T09:05:27.108Z,30.07
2018-06-09T09:06:27.111Z,29.77
2018-06-09T09:07:27.122Z,30.61
2018-06-09T09:08:27.138Z,32.13
2018-06-09T09:09:27.176Z,32.66
2018-06-09T09:10:27.158Z,32.32
2018-06-09T09:11:27.184Z,30.98
2018-06-09T09:12:27.205Z,31.88
2018-06-09T09:13:27.266Z,32.84
2018-06-09T09:14:27.237Z,33.65
2018-06-09T09:15:27.248Z,32.99
2018-06-09T09:16:27.301Z,33.53
2018-06-09T09:17:27.292Z,33.48
2018-06-09T09:18:27.299Z,33.34
2018-06-09T09:19:27.310Z,32.11
2018-06-09T09:20:27.327Z,30.99
2018-06-09T09:21:27.335Z,30.72
2018-06-09T09:22:27.359Z,31.98
2018-06-09T09:23:27.381Z,31.82
2018-06-09T09:24:27.400Z,31.88
2018-06-09T09:25:27.404Z,30.80
2018-06-09T09:26:27.421Z,30.30
2018-06-09T09:27:27.458Z,30.75
2018-06-09T09:28:27.471Z,29.31
2018-06-09T09:29:27.460Z,28.14
2018-06-09T09:30:27.485Z,28.81
2018-06-09T09:31:27.497Z,29.22
2018-06-09T09:32:27.500Z,29.50
2018-06-09T09:33:27.518Z,29.11
2018-06-09T09:34:27.524Z,28.69
2018-06-09T09:35:27.557Z,28.41
2018-06-09T09:36:27.579Z,28.36
2018-06-09T09:37:27.569Z,28.25
2018-06-09T09:38:27.583Z,28.17
2018-06-09T09:39:27.594Z,27.91
2018-06-09T09:40:27.624Z,28.10
2018-06-09T09:41:27.609Z,27.91
2018-06-09T09:42:27.626Z,27.89
2018-06-09T09:43:27.636Z,28.06
2018-06-09T09:44:27.646Z,28.31
2018-06-09T09:45:28.238Z,29.57
2018-06-09T09:46:27.672Z,29.86
2018-06-09T09:47:27.702Z,30.33
2018-06-09T09:48:27.697Z,30.40
2018-06-09T09:49:27.714Z,28.95
2018-06-09T09:50:27.710Z,28.58
2018-06-09T09:51:28.238Z,28.53
2018-06-09T09:52:27.735Z,29.53
2018-06-09T09:53:27.740Z,30.02
2018-06-09T09:54:27.751Z,30.50
2018-06-09T09:55:27.762Z,29.81
2018-06-09T09:56:27.770Z,29.92
2018-06-09T09:57:27.784Z,30.38
2018-06-09T09:58:27.809Z,29.37
2018-06-09T09:59:27.818Z,29.10
2018-06-09T10:00:27.826Z,30.03
2018-06-09T10:01:27.894Z,30.91
2018-06-09T10:02:27.862Z,30.94
2018-06-09T10:03:27.870Z,30.67
2018-06-09T10:04:27.894Z,30.30
2018-06-09T10:05:27.907Z,29.84
2018-06-09T10:06:27.915Z,28.81
2018-06-09T10:07:27.932Z,28.77
2018-06-09T10:08:27.944Z,28.78
2018-06-09T10:09:27.958Z,28.93
2018-06-09T10:10:27.969Z,29.34
2018-06-09T10:11:27.973Z,30.24
2018-06-09T10:12:27.995Z,31.23
2018-06-09T10:13:28.054Z,31.45
2018-06-09T10:14:28.038Z,31.85
2018-06-09T10:15:28.031Z,31.50
2018-06-09T10:16:28.041Z,31.99
2018-06-09T10:17:28.059Z,32.14
2018-06-09T10:18:28.091Z,32.77
2018-06-09T10:19:28.090Z,32.61
2018-06-09T10:20:28.108Z,33.41
2018-06-09T10:21:28.123Z,33.53
2018-06-09T10:22:28.132Z,33.41
2018-06-09T10:23:28.152Z,32.61
2018-06-09T10:24:28.167Z,31.84
2018-06-09T10:25:28.183Z,32.79
2018-06-09T10:26:28.199Z,32.54
2018-06-09T10:27:28.223Z,32.93
2018-06-09T10:28:28.234Z,33.07
2018-06-09T10:29:28.250Z,32.99
2018-06-09T10:30:28.267Z,32.86
2018-06-09T10:31:28.275Z,33.03
2018-06-09T10:32:28.302Z,33.17
2018-06-09T10:33:28.317Z,32.00
2018-06-09T10:34:28.332Z,31.28
2018-06-09T10:35:28.350Z,31.31
2018-06-09T10:36:28.388Z,30.54
2018-06-09T10:37:28.383Z,30.40
2018-06-09T10:38:28.393Z,30.11
2018-06-09T10:39:28.405Z,30.08
2018-06-09T10:40:28.422Z,31.21
2018-06-09T10:41:28.440Z,31.79
2018-06-09T10:42:28.442Z,32.05
2018-06-09T10:43:28.459Z,32.05
2018-06-09T10:44:28.481Z,31.57
2018-06-09T10:45:28.511Z,31.30
2018-06-09T10:46:28.508Z,31.50
2018-06-09T10:47:28.520Z,31.58
2018-06-09T10:48:28.548Z,30.81
2018-06-09T10:49:28.554Z,29.23
2018-06-09T10:50:28.571Z,28.62
2018-06-09T10:51:28.583Z,29.60
2018-06-09T10:52:28.598Z,30.53
2018-06-09T10:53:28.616Z,31.38
2018-06-09T10:54:28.632Z,32.02
2018-06-09T10:55:28.636Z,32.61
2018-06-09T10:56:28.665Z,32.91
2018-06-09T10:57:28.730Z,32.98
2018-06-09T10:58:28.697Z,33.51
2018-06-09T10:59:28.712Z,33.92
2018-06-09T11:00:28.732Z,33.63
2018-06-09T11:01:28.751Z,33.20
2018-06-09T11:02:28.755Z,30.91
2018-06-09T11:03:28.780Z,30.67
2018-06-09T11:04:28.797Z,31.21
2018-06-09T11:05:28.816Z,32.22
2018-06-09T11:06:28.836Z,32.64
2018-06-09T11:07:28.853Z,33.27
2018-06-09T11:08:28.862Z,33.85
2018-06-09T11:09:28.889Z,33.30
2018-06-09T11:10:28.910Z,31.73
2018-06-09T11:11:28.918Z,31.40
2018-06-09T11:12:28.929Z,32.43
2018-06-09T11:13:28.948Z,33.01
2018-06-09T11:14:28.964Z,33.68
2018-06-09T11:15:28.981Z,32.93
2018-06-09T11:16:28.998Z,32.92
2018-06-09T11:17:29.018Z,32.05
2018-06-09T11:18:29.038Z,32.10
2018-06-09T11:19:29.055Z,32.36
2018-06-09T11:20:29.086Z,31.58
2018-06-09T11:21:29.086Z,31.75
2018-06-09T11:22:29.108Z,31.20
2018-06-09T11:23:29.123Z,31.30
2018-06-09T11:24:29.167Z,30.15
2018-06-09T11:25:29.168Z,30.98
2018-06-09T11:26:29.185Z,31.08
2018-06-09T11:27:29.189Z,31.54
2018-06-09T11:28:29.213Z,31.12
2018-06-09T11:29:29.227Z,31.61
2018-06-09T11:30:29.341Z,32.69
2018-06-09T11:31:29.268Z,33.53
2018-06-09T11:32:29.290Z,33.52
2018-06-09T11:33:29.301Z,34.24
2018-06-09T11:34:29.319Z,33.71
2018-06-09T11:35:29.343Z,32.58
2018-06-09T11:36:29.360Z,31.95
2018-06-09T11:37:29.374Z,32.25
2018-06-09T11:38:29.398Z,32.44
2018-06-09T11:39:29.415Z,31.58
2018-06-09T11:40:29.434Z,31.02
2018-06-09T11:41:29.444Z,30.36
2018-06-09T11:42:29.460Z,30.80
2018-06-09T11:43:29.490Z,31.30
2018-06-09T11:44:29.509Z,32.44
2018-06-09T11:45:29.524Z,32.96
2018-06-09T11:46:29.547Z,33.52
2018-06-09T11:47:29.553Z,32.71
2018-06-09T11:48:29.584Z,31.39
2018-06-09T11:49:29.599Z,31.01
2018-06-09T11:50:29.615Z,29.92
2018-06-09T11:51:29.638Z,29.68
2018-06-09T11:52:29.653Z,29.75
2018-06-09T11:53:29.667Z,29.44
2018-06-09T11:54:29.677Z,29.59
2018-06-09T11:55:29.696Z,30.69
2018-06-09T11:56:29.722Z,31.58
2018-06-09T11:57:29.725Z,30.18
2018-06-09T11:58:29.744Z,29.81
2018-06-09T11:59:29.755Z,29.10
2018-06-09T12:00:29.770Z,28.66
2018-06-09T12:01:29.785Z,29.77
2018-06-09T12:02:29.796Z,30.67
2018-06-09T12:03:29.809Z,31.49
2018-06-09T12:04:29.825Z,31.96
2018-06-09T12:05:29.878Z,32.18
2018-06-09T12:06:29.852Z,32.73
2018-06-09T12:07:29.858Z,32.98
2018-06-09T12:08:29.886Z,33.15
2018-06-09T12:09:29.901Z,33.58
2018-06-09T12:10:29.906Z,33.78
2018-06-09T12:11:29.924Z,34.41
2018-06-09T12:12:29.941Z,34.69
2018-06-09T12:13:29.953Z,34.35
2018-06-09T12:14:29.968Z,34.72
2018-06-09T12:15:29.989Z,35.25
2018-06-09T12:16:30.007Z,34.79
2018-06-09T12:17:30.023Z,34.99
2018-06-09T12:18:30.041Z,34.91
2018-06-09T12:19:30.056Z,35.30
2018-06-09T12:20:30.074Z,35.08
2018-06-09T12:21:30.096Z,34.11
2018-06-09T12:22:30.123Z,33.97
2018-06-09T12:23:30.129Z,33.71
2018-06-09T12:24:30.143Z,33.60
2018-06-09T12:25:30.162Z,32.86
2018-06-09T12:26:30.182Z,31.95
2018-06-09T12:27:30.196Z,30.15
2018-06-09T12:28:30.215Z,29.70
2018-06-09T12:29:30.236Z,29.56
2018-06-09T12:30:30.250Z,29.20
2018-06-09T12:31:30.268Z,27.99
2018-06-09T12:32:30.296Z,27.91
2018-06-09T12:33:30.299Z,27.99
2018-06-09T12:34:30.315Z,27.76
2018-06-09T12:35:30.332Z,27.62
2018-06-09T12:36:30.344Z,27.57
2018-06-09T12:37:30.361Z,27.71
2018-06-09T12:38:30.370Z,27.91
2018-06-09T12:39:30.387Z,28.13
2018-06-09T12:40:30.414Z,28.28
2018-06-09T12:41:30.410Z,28.44
2018-06-09T12:42:30.426Z,28.80
2018-06-09T12:43:30.438Z,28.81
2018-06-09T12:44:30.440Z,28.78
2018-06-09T12:45:30.457Z,29.06
2018-06-09T12:46:30.469Z,29.22
2018-06-09T12:47:30.477Z,29.33
2018-06-09T12:48:30.488Z,29.37
2018-06-09T12:49:30.497Z,29.60
2018-06-09T12:50:30.507Z,29.65
2018-06-09T12:51:30.525Z,29.53
2018-06-09T12:52:30.524Z,29.47
2018-06-09T12:53:30.533Z,29.31
2018-06-09T12:54:30.546Z,29.18
2018-06-09T12:55:30.551Z,28.47
2018-06-09T12:56:30.562Z,28.21
2018-06-09T12:57:30.560Z,28.17
2018-06-09T12:58:30.573Z,28.23
2018-06-09T12:59:30.575Z,28.41
2018-06-09T13:00:30.591Z,28.21
2018-06-09T13:01:30.599Z,28.48
2018-06-09T13:02:30.608Z,28.68
2018-06-09T13:03:30.618Z,28.95
2018-06-09T13:04:30.623Z,28.62
2018-06-09T13:05:30.630Z,27.64
2018-06-09T13:06:30.628Z,27.50
2018-06-09T13:07:30.644Z,27.58
2018-06-09T13:08:30.676Z,28.01
2018-06-09T13:09:30.657Z,28.17
2018-06-09T13:10:30.665Z,28.31
2018-06-09T13:11:30.673Z,28.35
2018-06-09T13:12:30.684Z,28.35
2018-06-09T13:13:30.683Z,28.43
2018-06-09T13:14:30.697Z,28.43
2018-06-09T13:15:30.697Z,28.54
2018-06-09T13:16:30.708Z,28.77
2018-06-09T13:17:30.716Z,28.66
2018-06-09T13:18:30.717Z,28.75
2018-06-09T13:19:30.733Z,28.81
2018-06-09T13:20:30.736Z,28.58
2018-06-09T13:21:30.736Z,28.43
2018-06-09T13:22:30.741Z,28.46
2018-06-09T13:23:30.755Z,28.16
2018-06-09T13:24:30.757Z,27.76
2018-06-09T13:25:30.763Z,27.57
2018-06-09T13:26:30.756Z,27.47
2018-06-09T13:27:30.773Z,27.29
2018-06-09T13:28:30.778Z,27.01
2018-06-09T13:29:30.782Z,26.87
2018-06-09T13:30:30.788Z,27.06
2018-06-09T13:31:30.793Z,27.26
2018-06-09T13:32:30.795Z,27.38
2018-06-09T13:33:30.810Z,27.35
2018-06-09T13:34:30.808Z,27.38
2018-06-09T13:35:30.817Z,27.17
2018-06-09T13:36:30.822Z,27.32
2018-06-09T13:37:30.824Z,26.99
2018-06-09T13:38:30.831Z,26.67
2018-06-09T13:39:30.840Z,26.67
2018-06-09T13:40:30.839Z,26.58
2018-06-09T13:41:30.851Z,26.43
2018-06-09T13:42:30.851Z,26.27
2018-06-09T13:43:30.857Z,26.04
2018-06-09T13:44:30.865Z,26.05
2018-06-09T13:45:30.865Z,26.20